sensor_id;sensor_type;location;lat;lon;timestamp;P1;durP1;ratioP1;P2;durP2;ratioP2
67965;SDS011;54749;47.850;9.002;2023-02-15T00:01:48;31.73;;;9.50;;
67965;SDS011;54749;47.850;9.002;2023-02-15T00:04:17;23.80;;;8.20;;
67965;SDS011;54749;47.850;9.002;2023-02-15T00:06:45;22.80;;;8.02;;
67965;SDS011;54749;47.850;9.002;2023-02-15T00:09:12;19.20;;;7.45;;
67965;SDS011;54749;47.850;9.002;2023-02-15T00:11:40;25.55;;;8.15;;
67965;SDS011;54749;47.850;9.002;2023-02-15T00:14:13;26.20;;;8.65;;
67965;SDS011;54749;47.850;9.002;2023-02-15T00:16:42;21.90;;;7.23;;
67965;SDS011;54749;47.850;9.002;2023-02-15T00:19:11;22.40;;;6.70;;
67965;SDS011;54749;47.850;9.002;2023-02-15T00:21:39;17.77;;;6.35;;
67965;SDS011;54749;47.850;9.002;2023-02-15T00:24:08;26.90;;;8.07;;
67965;SDS011;54749;47.850;9.002;2023-02-15T00:26:37;30.98;;;9.15;;
67965;SDS011;54749;47.850;9.002;2023-02-15T00:29:05;28.60;;;10.00;;
67965;SDS011;54749;47.850;9.002;2023-02-15T00:31:33;23.80;;;8.55;;
67965;SDS011;54749;47.850;9.002;2023-02-15T00:34:05;30.80;;;9.52;;
67965;SDS011;54749;47.850;9.002;2023-02-15T00:36:32;26.38;;;8.80;;
67965;SDS011;54749;47.850;9.002;2023-02-15T00:39:00;34.28;;;8.82;;
67965;SDS011;54749;47.850;9.002;2023-02-15T00:41:27;23.30;;;8.50;;
67965;SDS011;54749;47.850;9.002;2023-02-15T00:43:54;22.05;;;8.32;;
67965;SDS011;54749;47.850;9.002;2023-02-15T00:46:21;25.70;;;7.55;;
67965;SDS011;54749;47.850;9.002;2023-02-15T00:48:48;20.75;;;7.93;;
67965;SDS011;54749;47.850;9.002;2023-02-15T00:51:16;24.23;;;9.68;;
67965;SDS011;54749;47.850;9.002;2023-02-15T00:53:44;25.80;;;8.80;;
67965;SDS011;54749;47.850;9.002;2023-02-15T00:56:12;23.15;;;8.90;;
67965;SDS011;54749;47.850;9.002;2023-02-15T00:58:39;19.73;;;7.28;;
67965;SDS011;54749;47.850;9.002;2023-02-15T01:01:09;24.75;;;8.82;;
67965;SDS011;54749;47.850;9.002;2023-02-15T01:03:38;55.03;;;11.05;;
67965;SDS011;54749;47.850;9.002;2023-02-15T01:06:06;22.10;;;8.63;;
67965;SDS011;54749;47.850;9.002;2023-02-15T01:08:33;21.33;;;7.15;;
67965;SDS011;54749;47.850;9.002;2023-02-15T01:11:04;25.33;;;8.35;;
67965;SDS011;54749;47.850;9.002;2023-02-15T01:13:33;22.65;;;7.88;;
67965;SDS011;54749;47.850;9.002;2023-02-15T01:16:00;24.75;;;7.57;;
67965;SDS011;54749;47.850;9.002;2023-02-15T01:18:28;48.03;;;13.23;;
67965;SDS011;54749;47.850;9.002;2023-02-15T01:20:56;29.80;;;10.25;;
67965;SDS011;54749;47.850;9.002;2023-02-15T01:23:24;42.55;;;11.25;;
67965;SDS011;54749;47.850;9.002;2023-02-15T01:25:51;110.45;;;14.95;;
67965;SDS011;54749;47.850;9.002;2023-02-15T01:28:18;128.18;;;17.67;;
67965;SDS011;54749;47.850;9.002;2023-02-15T01:30:45;60.53;;;13.67;;
67965;SDS011;54749;47.850;9.002;2023-02-15T01:33:12;130.65;;;16.20;;
67965;SDS011;54749;47.850;9.002;2023-02-15T01:35:45;111.93;;;15.32;;
67965;SDS011;54749;47.850;9.002;2023-02-15T01:38:13;34.28;;;11.20;;
67965;SDS011;54749;47.850;9.002;2023-02-15T01:40:41;57.35;;;14.27;;
67965;SDS011;54749;47.850;9.002;2023-02-15T01:43:11;46.63;;;12.37;;
67965;SDS011;54749;47.850;9.002;2023-02-15T01:45:39;42.05;;;13.00;;
67965;SDS011;54749;47.850;9.002;2023-02-15T01:48:18;33.35;;;11.15;;
67965;SDS011;54749;47.850;9.002;2023-02-15T01:50:52;38.20;;;12.20;;
67965;SDS011;54749;47.850;9.002;2023-02-15T01:53:23;30.15;;;10.80;;
67965;SDS011;54749;47.850;9.002;2023-02-15T01:55:55;29.47;;;9.40;;
67965;SDS011;54749;47.850;9.002;2023-02-15T01:58:27;27.00;;;9.15;;
67965;SDS011;54749;47.850;9.002;2023-02-15T02:00:56;26.90;;;9.25;;
67965;SDS011;54749;47.850;9.002;2023-02-15T02:03:40;26.92;;;10.20;;
67965;SDS011;54749;47.850;9.002;2023-02-15T02:06:07;37.60;;;10.93;;
67965;SDS011;54749;47.850;9.002;2023-02-15T02:08:35;109.90;;;15.20;;
67965;SDS011;54749;47.850;9.002;2023-02-15T02:11:02;32.20;;;10.20;;
67965;SDS011;54749;47.850;9.002;2023-02-15T02:13:29;27.63;;;9.18;;
67965;SDS011;54749;47.850;9.002;2023-02-15T02:27:25;44.25;;;12.68;;
67965;SDS011;54749;47.850;9.002;2023-02-15T02:32:53;41.03;;;11.27;;
67965;SDS011;54749;47.850;9.002;2023-02-15T02:44:33;72.13;;;15.00;;
67965;SDS011;54749;47.850;9.002;2023-02-15T02:47:08;87.88;;;13.10;;
67965;SDS011;54749;47.850;9.002;2023-02-15T02:49:41;29.67;;;9.93;;
67965;SDS011;54749;47.850;9.002;2023-02-15T02:54:58;33.13;;;8.93;;
67965;SDS011;54749;47.850;9.002;2023-02-15T02:57:27;28.50;;;9.90;;
67965;SDS011;54749;47.850;9.002;2023-02-15T02:59:56;26.40;;;9.15;;
67965;SDS011;54749;47.850;9.002;2023-02-15T03:02:29;75.33;;;13.93;;
67965;SDS011;54749;47.850;9.002;2023-02-15T03:05:01;48.15;;;13.50;;
67965;SDS011;54749;47.850;9.002;2023-02-15T03:07:33;42.70;;;12.57;;
67965;SDS011;54749;47.850;9.002;2023-02-15T03:10:03;86.75;;;15.48;;
67965;SDS011;54749;47.850;9.002;2023-02-15T03:12:33;29.52;;;11.05;;
67965;SDS011;54749;47.850;9.002;2023-02-15T03:15:04;26.47;;;9.03;;
67965;SDS011;54749;47.850;9.002;2023-02-15T03:17:42;26.98;;;8.57;;
67965;SDS011;54749;47.850;9.002;2023-02-15T03:20:16;30.90;;;9.13;;
67965;SDS011;54749;47.850;9.002;2023-02-15T03:22:54;24.77;;;8.70;;
67965;SDS011;54749;47.850;9.002;2023-02-15T03:25:33;24.40;;;8.45;;
67965;SDS011;54749;47.850;9.002;2023-02-15T03:28:07;27.77;;;10.27;;
67965;SDS011;54749;47.850;9.002;2023-02-15T03:30:45;32.03;;;9.77;;
67965;SDS011;54749;47.850;9.002;2023-02-15T03:33:18;22.75;;;8.35;;
67965;SDS011;54749;47.850;9.002;2023-02-15T03:38:43;22.35;;;7.57;;
67965;SDS011;54749;47.850;9.002;2023-02-15T03:41:14;23.47;;;7.57;;
67965;SDS011;54749;47.850;9.002;2023-02-15T03:46:34;49.60;;;12.27;;
67965;SDS011;54749;47.850;9.002;2023-02-15T03:49:17;63.67;;;12.68;;
67965;SDS011;54749;47.850;9.002;2023-02-15T03:51:50;91.60;;;11.20;;
67965;SDS011;54749;47.850;9.002;2023-02-15T03:54:26;52.07;;;9.80;;
67965;SDS011;54749;47.850;9.002;2023-02-15T03:57:12;27.77;;;8.25;;
67965;SDS011;54749;47.850;9.002;2023-02-15T04:00:03;18.92;;;7.20;;
67965;SDS011;54749;47.850;9.002;2023-02-15T04:05:32;30.85;;;9.27;;
67965;SDS011;54749;47.850;9.002;2023-02-15T04:07:59;61.87;;;12.73;;
67965;SDS011;54749;47.850;9.002;2023-02-15T04:10:26;126.97;;;14.07;;
67965;SDS011;54749;47.850;9.002;2023-02-15T04:13:12;63.83;;;13.43;;
67965;SDS011;54749;47.850;9.002;2023-02-15T04:15:39;96.70;;;14.27;;
67965;SDS011;54749;47.850;9.002;2023-02-15T04:18:25;87.88;;;15.10;;
67965;SDS011;54749;47.850;9.002;2023-02-15T04:21:11;56.70;;;14.07;;
67965;SDS011;54749;47.850;9.002;2023-02-15T04:23:57;45.58;;;13.90;;
67965;SDS011;54749;47.850;9.002;2023-02-15T04:26:43;53.80;;;13.43;;
67965;SDS011;54749;47.850;9.002;2023-02-15T04:29:10;79.72;;;15.13;;
67965;SDS011;54749;47.850;9.002;2023-02-15T04:31:37;65.05;;;13.95;;
67965;SDS011;54749;47.850;9.002;2023-02-15T04:34:04;47.80;;;14.10;;
67965;SDS011;54749;47.850;9.002;2023-02-15T04:36:31;61.85;;;15.15;;
67965;SDS011;54749;47.850;9.002;2023-02-15T04:38:58;50.90;;;13.25;;
67965;SDS011;54749;47.850;9.002;2023-02-15T04:41:25;41.72;;;10.32;;
67965;SDS011;54749;47.850;9.002;2023-02-15T04:43:52;26.05;;;8.77;;
67965;SDS011;54749;47.850;9.002;2023-02-15T04:46:19;24.10;;;8.30;;
67965;SDS011;54749;47.850;9.002;2023-02-15T04:48:46;36.53;;;9.35;;
67965;SDS011;54749;47.850;9.002;2023-02-15T04:51:13;28.40;;;7.22;;
67965;SDS011;54749;47.850;9.002;2023-02-15T04:53:40;19.10;;;6.82;;
67965;SDS011;54749;47.850;9.002;2023-02-15T04:56:07;23.55;;;6.95;;
67965;SDS011;54749;47.850;9.002;2023-02-15T04:58:34;23.07;;;8.47;;
67965;SDS011;54749;47.850;9.002;2023-02-15T05:01:02;27.67;;;9.57;;
67965;SDS011;54749;47.850;9.002;2023-02-15T05:03:29;28.80;;;9.00;;
67965;SDS011;54749;47.850;9.002;2023-02-15T05:05:56;25.20;;;9.07;;
67965;SDS011;54749;47.850;9.002;2023-02-15T05:08:23;71.10;;;12.70;;
67965;SDS011;54749;47.850;9.002;2023-02-15T05:10:50;76.93;;;12.40;;
67965;SDS011;54749;47.850;9.002;2023-02-15T05:13:17;25.23;;;8.85;;
67965;SDS011;54749;47.850;9.002;2023-02-15T05:15:48;61.75;;;12.20;;
67965;SDS011;54749;47.850;9.002;2023-02-15T05:18:16;33.03;;;11.02;;
67965;SDS011;54749;47.850;9.002;2023-02-15T05:20:43;52.33;;;12.38;;
67965;SDS011;54749;47.850;9.002;2023-02-15T05:23:11;50.07;;;12.27;;
67965;SDS011;54749;47.850;9.002;2023-02-15T05:25:38;22.40;;;7.68;;
67965;SDS011;54749;47.850;9.002;2023-02-15T05:28:24;28.13;;;9.55;;
67965;SDS011;54749;47.850;9.002;2023-02-15T05:31:07;41.92;;;11.88;;
67965;SDS011;54749;47.850;9.002;2023-02-15T05:33:38;62.63;;;13.40;;
67965;SDS011;54749;47.850;9.002;2023-02-15T05:36:07;26.30;;;8.37;;
67965;SDS011;54749;47.850;9.002;2023-02-15T05:38:34;74.30;;;13.05;;
67965;SDS011;54749;47.850;9.002;2023-02-15T05:41:04;40.05;;;11.15;;
67965;SDS011;54749;47.850;9.002;2023-02-15T05:43:32;52.15;;;12.23;;
67965;SDS011;54749;47.850;9.002;2023-02-15T05:45:59;33.17;;;9.45;;
67965;SDS011;54749;47.850;9.002;2023-02-15T05:48:27;41.40;;;11.57;;
67965;SDS011;54749;47.850;9.002;2023-02-15T05:53:36;78.32;;;13.40;;
67965;SDS011;54749;47.850;9.002;2023-02-15T05:56:05;139.30;;;14.10;;
67965;SDS011;54749;47.850;9.002;2023-02-15T05:58:35;116.05;;;14.43;;
67965;SDS011;54749;47.850;9.002;2023-02-15T06:01:10;46.67;;;12.23;;
67965;SDS011;54749;47.850;9.002;2023-02-15T06:03:44;149.05;;;14.40;;
67965;SDS011;54749;47.850;9.002;2023-02-15T06:06:12;62.50;;;9.48;;
67965;SDS011;54749;47.850;9.002;2023-02-15T06:08:39;54.75;;;9.63;;
67965;SDS011;54749;47.850;9.002;2023-02-15T06:11:10;43.35;;;7.13;;
67965;SDS011;54749;47.850;9.002;2023-02-15T06:13:37;51.10;;;12.73;;
67965;SDS011;54749;47.850;9.002;2023-02-15T06:16:05;27.05;;;9.05;;
67965;SDS011;54749;47.850;9.002;2023-02-15T06:18:33;25.85;;;9.77;;
67965;SDS011;54749;47.850;9.002;2023-02-15T06:21:00;27.13;;;9.00;;
67965;SDS011;54749;47.850;9.002;2023-02-15T06:23:27;51.35;;;13.25;;
67965;SDS011;54749;47.850;9.002;2023-02-15T06:25:55;31.73;;;8.87;;
67965;SDS011;54749;47.850;9.002;2023-02-15T06:28:22;35.85;;;11.50;;
67965;SDS011;54749;47.850;9.002;2023-02-15T06:30:49;53.67;;;12.13;;
67965;SDS011;54749;47.850;9.002;2023-02-15T06:33:16;24.48;;;8.45;;
67965;SDS011;54749;47.850;9.002;2023-02-15T06:35:44;115.57;;;14.88;;
67965;SDS011;54749;47.850;9.002;2023-02-15T06:38:11;35.73;;;10.43;;
67965;SDS011;54749;47.850;9.002;2023-02-15T06:40:38;30.85;;;9.75;;
67965;SDS011;54749;47.850;9.002;2023-02-15T06:43:05;25.08;;;8.70;;
67965;SDS011;54749;47.850;9.002;2023-02-15T06:45:33;37.40;;;12.00;;
67965;SDS011;54749;47.850;9.002;2023-02-15T06:48:00;66.03;;;13.30;;
67965;SDS011;54749;47.850;9.002;2023-02-15T06:50:27;41.57;;;10.17;;
67965;SDS011;54749;47.850;9.002;2023-02-15T06:52:57;62.78;;;12.70;;
67965;SDS011;54749;47.850;9.002;2023-02-15T06:55:24;53.47;;;13.75;;
67965;SDS011;54749;47.850;9.002;2023-02-15T06:57:51;83.10;;;13.68;;
67965;SDS011;54749;47.850;9.002;2023-02-15T07:00:19;48.72;;;12.68;;
67965;SDS011;54749;47.850;9.002;2023-02-15T07:02:47;52.33;;;12.70;;
67965;SDS011;54749;47.850;9.002;2023-02-15T07:05:14;31.80;;;11.75;;
67965;SDS011;54749;47.850;9.002;2023-02-15T07:07:41;52.20;;;13.55;;
67965;SDS011;54749;47.850;9.002;2023-02-15T07:10:08;20.95;;;8.10;;
67965;SDS011;54749;47.850;9.002;2023-02-15T07:12:35;25.48;;;9.13;;
67965;SDS011;54749;47.850;9.002;2023-02-15T07:15:18;25.13;;;9.97;;
67965;SDS011;54749;47.850;9.002;2023-02-15T07:17:47;23.00;;;7.55;;
67965;SDS011;54749;47.850;9.002;2023-02-15T07:20:19;22.02;;;7.50;;
67965;SDS011;54749;47.850;9.002;2023-02-15T07:22:48;19.58;;;7.25;;
67965;SDS011;54749;47.850;9.002;2023-02-15T07:25:16;23.77;;;9.77;;
67965;SDS011;54749;47.850;9.002;2023-02-15T07:27:43;22.57;;;8.57;;
67965;SDS011;54749;47.850;9.002;2023-02-15T07:30:12;21.60;;;7.85;;
67965;SDS011;54749;47.850;9.002;2023-02-15T07:32:41;17.45;;;6.63;;
67965;SDS011;54749;47.850;9.002;2023-02-15T07:35:31;22.55;;;6.70;;
67965;SDS011;54749;47.850;9.002;2023-02-15T07:37:59;30.23;;;8.35;;
67965;SDS011;54749;47.850;9.002;2023-02-15T07:40:27;33.23;;;9.70;;
67965;SDS011;54749;47.850;9.002;2023-02-15T07:42:57;20.98;;;7.20;;
67965;SDS011;54749;47.850;9.002;2023-02-15T07:45:26;21.05;;;8.60;;
67965;SDS011;54749;47.850;9.002;2023-02-15T07:47:53;25.13;;;8.75;;
67965;SDS011;54749;47.850;9.002;2023-02-15T07:50:20;26.83;;;8.85;;
67965;SDS011;54749;47.850;9.002;2023-02-15T07:52:47;28.23;;;10.33;;
67965;SDS011;54749;47.850;9.002;2023-02-15T07:55:14;36.95;;;12.65;;
67965;SDS011;54749;47.850;9.002;2023-02-15T07:57:44;42.00;;;12.65;;
67965;SDS011;54749;47.850;9.002;2023-02-15T08:00:13;44.25;;;13.15;;
67965;SDS011;54749;47.850;9.002;2023-02-15T08:02:42;52.55;;;14.13;;
67965;SDS011;54749;47.850;9.002;2023-02-15T08:05:14;65.23;;;16.53;;
67965;SDS011;54749;47.850;9.002;2023-02-15T08:07:43;64.35;;;16.40;;
67965;SDS011;54749;47.850;9.002;2023-02-15T08:10:10;49.33;;;15.18;;
67965;SDS011;54749;47.850;9.002;2023-02-15T08:12:57;58.85;;;15.50;;
67965;SDS011;54749;47.850;9.002;2023-02-15T08:15:24;36.13;;;12.30;;
67965;SDS011;54749;47.850;9.002;2023-02-15T08:17:51;86.63;;;18.37;;
67965;SDS011;54749;47.850;9.002;2023-02-15T08:20:18;51.10;;;15.10;;
67965;SDS011;54749;47.850;9.002;2023-02-15T08:22:45;34.75;;;11.45;;
67965;SDS011;54749;47.850;9.002;2023-02-15T08:25:12;66.70;;;17.77;;
67965;SDS011;54749;47.850;9.002;2023-02-15T08:27:39;55.03;;;16.77;;
67965;SDS011;54749;47.850;9.002;2023-02-15T08:30:06;38.63;;;13.27;;
67965;SDS011;54749;47.850;9.002;2023-02-15T08:32:34;52.78;;;16.25;;
67965;SDS011;54749;47.850;9.002;2023-02-15T08:35:01;71.28;;;18.90;;
67965;SDS011;54749;47.850;9.002;2023-02-15T08:37:28;58.10;;;18.05;;
67965;SDS011;54749;47.850;9.002;2023-02-15T08:39:55;55.58;;;16.77;;
67965;SDS011;54749;47.850;9.002;2023-02-15T08:42:22;51.83;;;15.07;;
67965;SDS011;54749;47.850;9.002;2023-02-15T08:44:49;47.28;;;15.05;;
67965;SDS011;54749;47.850;9.002;2023-02-15T08:47:18;48.28;;;15.52;;
67965;SDS011;54749;47.850;9.002;2023-02-15T08:49:45;36.58;;;12.60;;
67965;SDS011;54749;47.850;9.002;2023-02-15T08:52:12;36.33;;;11.57;;
67965;SDS011;54749;47.850;9.002;2023-02-15T08:54:39;49.20;;;16.23;;
67965;SDS011;54749;47.850;9.002;2023-02-15T08:57:05;72.68;;;21.25;;
67965;SDS011;54749;47.850;9.002;2023-02-15T08:59:33;68.97;;;18.67;;
67965;SDS011;54749;47.850;9.002;2023-02-15T09:02:00;79.30;;;21.30;;
67965;SDS011;54749;47.850;9.002;2023-02-15T09:04:28;78.55;;;21.90;;
67965;SDS011;54749;47.850;9.002;2023-02-15T09:06:55;71.83;;;20.10;;
67965;SDS011;54749;47.850;9.002;2023-02-15T09:09:22;73.70;;;19.73;;
67965;SDS011;54749;47.850;9.002;2023-02-15T09:11:51;65.72;;;17.88;;
67965;SDS011;54749;47.850;9.002;2023-02-15T09:14:25;60.22;;;16.13;;
67965;SDS011;54749;47.850;9.002;2023-02-15T09:16:53;42.30;;;13.40;;
67965;SDS011;54749;47.850;9.002;2023-02-15T09:19:23;50.87;;;16.50;;
67965;SDS011;54749;47.850;9.002;2023-02-15T09:21:51;45.97;;;14.55;;
67965;SDS011;54749;47.850;9.002;2023-02-15T09:24:18;38.88;;;12.32;;
67965;SDS011;54749;47.850;9.002;2023-02-15T09:26:46;39.35;;;12.13;;
67965;SDS011;54749;47.850;9.002;2023-02-15T09:29:15;44.80;;;14.38;;
67965;SDS011;54749;47.850;9.002;2023-02-15T09:31:45;48.93;;;15.53;;
67965;SDS011;54749;47.850;9.002;2023-02-15T09:34:16;72.35;;;21.20;;
67965;SDS011;54749;47.850;9.002;2023-02-15T09:36:45;74.30;;;20.77;;
67965;SDS011;54749;47.850;9.002;2023-02-15T09:39:21;46.97;;;15.45;;
67965;SDS011;54749;47.850;9.002;2023-02-15T09:50:28;80.60;;;23.83;;
67965;SDS011;54749;47.850;9.002;2023-02-15T09:58:45;74.37;;;20.63;;
67965;SDS011;54749;47.850;9.002;2023-02-15T10:15:13;57.33;;;16.42;;
67965;SDS011;54749;47.850;9.002;2023-02-15T10:31:27;39.50;;;13.48;;
67965;SDS011;54749;47.850;9.002;2023-02-15T10:34:17;32.05;;;12.05;;
67965;SDS011;54749;47.850;9.002;2023-02-15T10:54:45;34.00;;;12.20;;
67965;SDS011;54749;47.850;9.002;2023-02-15T10:57:24;69.55;;;17.23;;
67965;SDS011;54749;47.850;9.002;2023-02-15T11:00:05;118.20;;;25.08;;
67965;SDS011;54749;47.850;9.002;2023-02-15T11:08:26;73.33;;;17.50;;
67965;SDS011;54749;47.850;9.002;2023-02-15T11:11:05;50.53;;;13.60;;
67965;SDS011;54749;47.850;9.002;2023-02-15T11:13:38;68.97;;;18.63;;
67965;SDS011;54749;47.850;9.002;2023-02-15T11:16:14;41.33;;;12.93;;
67965;SDS011;54749;47.850;9.002;2023-02-15T11:21:20;44.87;;;14.43;;
67965;SDS011;54749;47.850;9.002;2023-02-15T11:23:48;34.17;;;11.98;;
67965;SDS011;54749;47.850;9.002;2023-02-15T11:26:17;45.35;;;14.60;;
67965;SDS011;54749;47.850;9.002;2023-02-15T11:28:59;43.00;;;15.40;;
67965;SDS011;54749;47.850;9.002;2023-02-15T11:31:29;46.33;;;16.27;;
67965;SDS011;54749;47.850;9.002;2023-02-15T11:36:58;37.15;;;12.80;;
67965;SDS011;54749;47.850;9.002;2023-02-15T11:39:31;37.28;;;14.15;;
67965;SDS011;54749;47.850;9.002;2023-02-15T11:42:04;40.47;;;15.70;;
67965;SDS011;54749;47.850;9.002;2023-02-15T11:44:41;35.75;;;14.57;;
67965;SDS011;54749;47.850;9.002;2023-02-15T11:47:15;33.50;;;13.70;;
67965;SDS011;54749;47.850;9.002;2023-02-15T11:49:42;29.52;;;12.45;;
67965;SDS011;54749;47.850;9.002;2023-02-15T11:52:12;35.20;;;13.63;;
67965;SDS011;54749;47.850;9.002;2023-02-15T11:54:45;37.97;;;13.95;;
67965;SDS011;54749;47.850;9.002;2023-02-15T11:57:15;32.13;;;11.75;;
67965;SDS011;54749;47.850;9.002;2023-02-15T11:59:51;45.57;;;16.17;;
67965;SDS011;54749;47.850;9.002;2023-02-15T12:02:22;51.28;;;18.83;;
67965;SDS011;54749;47.850;9.002;2023-02-15T12:05:00;51.03;;;18.15;;
67965;SDS011;54749;47.850;9.002;2023-02-15T12:10:24;41.83;;;16.38;;
67965;SDS011;54749;47.850;9.002;2023-02-15T12:13:09;39.93;;;16.07;;
67965;SDS011;54749;47.850;9.002;2023-02-15T12:15:48;38.85;;;15.30;;
67965;SDS011;54749;47.850;9.002;2023-02-15T12:18:19;36.42;;;15.23;;
67965;SDS011;54749;47.850;9.002;2023-02-15T12:20:51;34.10;;;14.30;;
67965;SDS011;54749;47.850;9.002;2023-02-15T12:23:19;36.15;;;15.90;;
67965;SDS011;54749;47.850;9.002;2023-02-15T12:25:54;37.90;;;15.57;;
67965;SDS011;54749;47.850;9.002;2023-02-15T12:28:24;43.20;;;17.60;;
67965;SDS011;54749;47.850;9.002;2023-02-15T12:31:07;34.28;;;15.07;;
67965;SDS011;54749;47.850;9.002;2023-02-15T12:33:46;43.60;;;18.55;;
67965;SDS011;54749;47.850;9.002;2023-02-15T12:36:20;34.50;;;14.93;;
67965;SDS011;54749;47.850;9.002;2023-02-15T12:39:02;41.43;;;17.50;;
67965;SDS011;54749;47.850;9.002;2023-02-15T12:41:31;37.03;;;15.20;;
67965;SDS011;54749;47.850;9.002;2023-02-15T12:44:18;40.00;;;16.75;;
67965;SDS011;54749;47.850;9.002;2023-02-15T12:47:16;38.78;;;16.42;;
67965;SDS011;54749;47.850;9.002;2023-02-15T12:49:45;36.13;;;14.85;;
67965;SDS011;54749;47.850;9.002;2023-02-15T12:52:50;38.33;;;15.97;;
67965;SDS011;54749;47.850;9.002;2023-02-15T12:57:44;34.08;;;14.15;;
67965;SDS011;54749;47.850;9.002;2023-02-15T13:02:48;36.63;;;14.73;;
67965;SDS011;54749;47.850;9.002;2023-02-15T13:13:34;50.20;;;18.83;;
67965;SDS011;54749;47.850;9.002;2023-02-15T13:16:06;40.97;;;16.58;;
67965;SDS011;54749;47.850;9.002;2023-02-15T13:18:39;43.40;;;18.13;;
67965;SDS011;54749;47.850;9.002;2023-02-15T13:23:47;49.80;;;19.13;;
67965;SDS011;54749;47.850;9.002;2023-02-15T13:26:19;42.70;;;17.60;;
67965;SDS011;54749;47.850;9.002;2023-02-15T13:28:53;56.45;;;21.10;;
67965;SDS011;54749;47.850;9.002;2023-02-15T13:31:26;45.33;;;19.00;;
67965;SDS011;54749;47.850;9.002;2023-02-15T13:36:54;41.95;;;17.75;;
67965;SDS011;54749;47.850;9.002;2023-02-15T13:39:39;44.80;;;17.63;;
67965;SDS011;54749;47.850;9.002;2023-02-15T13:42:50;105.70;;;32.42;;
67965;SDS011;54749;47.850;9.002;2023-02-15T13:48:00;74.43;;;26.80;;
67965;SDS011;54749;47.850;9.002;2023-02-15T13:56:27;47.05;;;19.63;;
67965;SDS011;54749;47.850;9.002;2023-02-15T14:10:50;44.83;;;18.67;;
67965;SDS011;54749;47.850;9.002;2023-02-15T14:13:40;47.47;;;19.27;;
67965;SDS011;54749;47.850;9.002;2023-02-15T14:19:37;52.85;;;20.35;;
67965;SDS011;54749;47.850;9.002;2023-02-15T14:22:16;55.05;;;21.33;;
67965;SDS011;54749;47.850;9.002;2023-02-15T14:25:39;63.13;;;23.33;;
67965;SDS011;54749;47.850;9.002;2023-02-15T14:27:52;50.67;;;20.17;;
67965;SDS011;54749;47.850;9.002;2023-02-15T14:30:35;43.95;;;18.50;;
67965;SDS011;54749;47.850;9.002;2023-02-15T14:36:02;45.33;;;17.85;;
67965;SDS011;54749;47.850;9.002;2023-02-15T14:41:20;52.43;;;21.10;;
67965;SDS011;54749;47.850;9.002;2023-02-15T14:47:51;46.00;;;17.48;;
67965;SDS011;54749;47.850;9.002;2023-02-15T14:50:57;51.95;;;19.48;;
67965;SDS011;54749;47.850;9.002;2023-02-15T14:55:42;49.13;;;18.37;;
67965;SDS011;54749;47.850;9.002;2023-02-15T14:58:13;53.78;;;20.20;;
67965;SDS011;54749;47.850;9.002;2023-02-15T15:00:40;45.40;;;18.02;;
67965;SDS011;54749;47.850;9.002;2023-02-15T15:03:21;46.45;;;18.00;;
67965;SDS011;54749;47.850;9.002;2023-02-15T15:05:52;50.22;;;18.80;;
67965;SDS011;54749;47.850;9.002;2023-02-15T15:08:22;47.47;;;17.70;;
67965;SDS011;54749;47.850;9.002;2023-02-15T15:10:55;46.42;;;17.33;;
67965;SDS011;54749;47.850;9.002;2023-02-15T15:18:56;49.45;;;18.50;;
67965;SDS011;54749;47.850;9.002;2023-02-15T15:33:05;50.58;;;18.90;;
67965;SDS011;54749;47.850;9.002;2023-02-15T15:36:14;62.50;;;23.77;;
67965;SDS011;54749;47.850;9.002;2023-02-15T15:44:59;53.40;;;18.73;;
67965;SDS011;54749;47.850;9.002;2023-02-15T15:47:47;60.60;;;20.63;;
67965;SDS011;54749;47.850;9.002;2023-02-15T15:50:33;48.57;;;17.83;;
67965;SDS011;54749;47.850;9.002;2023-02-15T15:53:01;45.70;;;17.05;;
67965;SDS011;54749;47.850;9.002;2023-02-15T15:55:30;47.28;;;16.35;;
67965;SDS011;54749;47.850;9.002;2023-02-15T15:58:02;41.63;;;14.90;;
67965;SDS011;54749;47.850;9.002;2023-02-15T16:00:46;42.92;;;15.15;;
67965;SDS011;54749;47.850;9.002;2023-02-15T16:03:20;41.30;;;14.13;;
67965;SDS011;54749;47.850;9.002;2023-02-15T16:05:48;38.33;;;13.10;;
67965;SDS011;54749;47.850;9.002;2023-02-15T16:08:37;42.28;;;13.77;;
67965;SDS011;54749;47.850;9.002;2023-02-15T16:11:22;35.63;;;13.35;;
67965;SDS011;54749;47.850;9.002;2023-02-15T16:13:51;42.60;;;15.18;;
67965;SDS011;54749;47.850;9.002;2023-02-15T16:16:26;40.23;;;14.07;;
67965;SDS011;54749;47.850;9.002;2023-02-15T16:18:58;38.47;;;13.77;;
67965;SDS011;54749;47.850;9.002;2023-02-15T16:21:27;36.38;;;12.20;;
67965;SDS011;54749;47.850;9.002;2023-02-15T16:29:15;40.33;;;12.83;;
67965;SDS011;54749;47.850;9.002;2023-02-15T16:31:55;36.10;;;12.00;;
67965;SDS011;54749;47.850;9.002;2023-02-15T16:34:33;39.45;;;13.93;;
67965;SDS011;54749;47.850;9.002;2023-02-15T16:37:13;42.08;;;12.82;;
67965;SDS011;54749;47.850;9.002;2023-02-15T16:39:45;39.55;;;13.18;;
67965;SDS011;54749;47.850;9.002;2023-02-15T16:42:14;39.73;;;12.67;;
67965;SDS011;54749;47.850;9.002;2023-02-15T16:44:45;37.42;;;13.10;;
67965;SDS011;54749;47.850;9.002;2023-02-15T16:47:19;34.63;;;11.85;;
67965;SDS011;54749;47.850;9.002;2023-02-15T16:49:52;39.15;;;12.65;;
67965;SDS011;54749;47.850;9.002;2023-02-15T16:52:22;36.45;;;12.07;;
67965;SDS011;54749;47.850;9.002;2023-02-15T16:55:02;31.30;;;11.07;;
67965;SDS011;54749;47.850;9.002;2023-02-15T16:57:32;33.65;;;11.60;;
67965;SDS011;54749;47.850;9.002;2023-02-15T17:00:07;34.58;;;11.77;;
67965;SDS011;54749;47.850;9.002;2023-02-15T17:02:54;33.55;;;10.88;;
67965;SDS011;54749;47.850;9.002;2023-02-15T17:05:25;35.58;;;11.15;;
67965;SDS011;54749;47.850;9.002;2023-02-15T17:10:41;35.95;;;11.15;;
67965;SDS011;54749;47.850;9.002;2023-02-15T17:13:15;35.40;;;11.25;;
67965;SDS011;54749;47.850;9.002;2023-02-15T17:15:44;32.25;;;10.55;;
67965;SDS011;54749;47.850;9.002;2023-02-15T17:18:38;33.33;;;11.70;;
67965;SDS011;54749;47.850;9.002;2023-02-15T17:21:11;33.17;;;11.10;;
67965;SDS011;54749;47.850;9.002;2023-02-15T17:23:51;48.40;;;16.48;;
67965;SDS011;54749;47.850;9.002;2023-02-15T17:26:28;55.83;;;19.17;;
67965;SDS011;54749;47.850;9.002;2023-02-15T17:28:58;40.90;;;13.63;;
67965;SDS011;54749;47.850;9.002;2023-02-15T17:31:31;35.90;;;12.52;;
67965;SDS011;54749;47.850;9.002;2023-02-15T17:34:00;45.57;;;12.87;;
67965;SDS011;54749;47.850;9.002;2023-02-15T17:36:29;40.70;;;13.25;;
67965;SDS011;54749;47.850;9.002;2023-02-15T17:41:25;45.65;;;14.45;;
67965;SDS011;54749;47.850;9.002;2023-02-15T17:43:53;46.80;;;14.65;;
67965;SDS011;54749;47.850;9.002;2023-02-15T17:46:21;38.30;;;13.67;;
67965;SDS011;54749;47.850;9.002;2023-02-15T17:48:49;37.95;;;12.63;;
67965;SDS011;54749;47.850;9.002;2023-02-15T17:51:18;39.33;;;13.02;;
67965;SDS011;54749;47.850;9.002;2023-02-15T17:53:46;40.60;;;13.43;;
67965;SDS011;54749;47.850;9.002;2023-02-15T17:56:33;33.00;;;10.48;;
67965;SDS011;54749;47.850;9.002;2023-02-15T17:59:00;37.50;;;12.60;;
67965;SDS011;54749;47.850;9.002;2023-02-15T18:01:27;39.88;;;12.95;;
67965;SDS011;54749;47.850;9.002;2023-02-15T18:04:13;36.50;;;12.32;;
67965;SDS011;54749;47.850;9.002;2023-02-15T18:07:00;33.60;;;11.02;;
67965;SDS011;54749;47.850;9.002;2023-02-15T18:09:45;33.92;;;11.18;;
67965;SDS011;54749;47.850;9.002;2023-02-15T18:12:32;37.50;;;11.33;;